Axtell, TX

4:25 AM CST on December 19, 2014 (GMT -0600)
Tstc Waco | Change Station
CLOSE
Current Station
Airport
Location: TSTC Waco Airport,
Elevation: 469 ft
Nearby Weather Stations

Elev 469 ft 31.65 °N, 97.07 °W | Updated 5 hours ago

Overcast
Overcast
48 °F
Feels Like 48 °F
N
7
Wind Variable Wind from North

Today
High -- | Low -- °F
--% Chance of Precip.
Yesterday
High -- | Low -- °F
Precip. -- in
7:22 AM 5:27 PM
Waning Crescent, 8% visible
Pressure 30.16 in
Visibility 7.0 miles
Clouds Overcast 1100 ft
Dew Point 46 °F
Humidity 93%
Rainfall 0.00 in
Snow Depth Not available.
UV 0 out of 12
Pollen 8.20 out of 12
Air Quality Not available.
Flu Activity Not available.
METAR KCNW 190455Z 35006KT 7SM OVC011 09/08 A3016

More Conditions Fewer Conditions

Pressure 30.16 in
Visibility 7.0 miles
Clouds Overcast 1100 ft
Dew Point 46 °F
Humidity 93%
Rainfall 0.00 in
Snow Depth Not available.
UV 0 out of 12
Pollen 8.20 out of 12
Air Quality Not available.
Flu Activity Not available.
METAR KCNW 190455Z 35006KT 7SM OVC011 09/08 A3016

More Conditions Fewer Conditions

Nowcast | as of 3:24 am CST on December 19, 2014

Scattered to numerous showers and isolated thunderstorms will continue to move northeast across north and central Texas through 8 am. The rain will be mostly light to moderate though some brief heavy rain and cloud to ground lightning will accompany some of the thunderstorms as they move northeast at 35 mph.

×

10-Day Weather Forecast

Almanac

Astronomy

Dec. 19, 2014 Rise Set
Actual Time
Civil Twilight
Nautical Twilight
Astronomical Twilight
Moon
Length of Visible Light
Length of Day
Tomorrow will be .
, % of the Moon is Illuminated

Today's Extremes

State Highs State Lows

Community

WunderPhotos

Upload Photos

1,778,966 photos uploaded!

WunderBlogs® & News

Nearby

Air Quality

  Air Quality AQ Index Pollutant
Not available.

Snow Depth

Station Depth Elevation

Earthquake Activity

City Distance Mag. Time & Date
Minimum magnitude displayed is 2.5.

Coastal Water Temperatures

Place Temperature

Nearby Weather Stations